createdAt,value
2022-10-10T00:01:38.452Z,1502
2022-10-10T00:06:56.993Z,1513
2022-10-10T00:12:15.474Z,1518
2022-10-10T00:17:33.987Z,1531
2022-10-10T00:22:52.850Z,1539
2022-10-10T00:28:12.054Z,1554
2022-10-10T00:33:30.656Z,1558
2022-10-10T00:38:49.124Z,1568
2022-10-10T00:44:07.885Z,1568
2022-10-10T00:49:26.748Z,1582
2022-10-10T00:54:45.506Z,1590
2022-10-10T01:00:03.941Z,1595
2022-10-10T01:05:22.468Z,1593
2022-10-10T01:10:41.208Z,1586
2022-10-10T01:15:59.952Z,1588
2022-10-10T01:21:18.183Z,1589
2022-10-10T01:26:36.930Z,1590
2022-10-10T01:31:55.125Z,1594
2022-10-10T01:37:13.944Z,1588
2022-10-10T01:42:32.422Z,1589
2022-10-10T01:47:50.900Z,1587
2022-10-10T01:53:09.712Z,1590
2022-10-10T01:58:27.884Z,1599
2022-10-10T02:03:46.389Z,1597
2022-10-10T02:09:05.592Z,1596
2022-10-10T02:14:24.047Z,1602
2022-10-10T02:19:42.531Z,1612
2022-10-10T02:25:01.070Z,1608
2022-10-10T02:30:19.213Z,1623
2022-10-10T02:35:37.414Z,1612
2022-10-10T02:40:56.045Z,1612
2022-10-10T02:46:14.420Z,1610
2022-10-10T02:51:32.932Z,1616
2022-10-10T02:56:51.439Z,1620
2022-10-10T03:02:10.187Z,1614
2022-10-10T03:07:28.695Z,1617
2022-10-10T03:12:47.667Z,1616
2022-10-10T03:18:07.434Z,1663
2022-10-10T03:23:25.915Z,1646
2022-10-10T03:28:44.169Z,1636
2022-10-10T03:34:02.551Z,1627
2022-10-10T03:39:21.048Z,1618
2022-10-10T03:44:39.556Z,1617
2022-10-10T03:49:58.297Z,1613
2022-10-10T03:55:16.751Z,1611
2022-10-10T04:00:34.974Z,1614
2022-10-10T04:05:53.470Z,1609
2022-10-10T04:11:11.929Z,1612
2022-10-10T04:16:30.729Z,1624
2022-10-10T04:21:49.204Z,1615
2022-10-10T04:27:07.959Z,1564
2022-10-10T04:32:25.918Z,1113
2022-10-10T04:37:44.660Z,1291
2022-10-10T04:43:03.430Z,1426
2022-10-10T04:48:21.663Z,1481
2022-10-10T04:53:40.127Z,1515
2022-10-10T04:58:58.591Z,1524
2022-10-10T05:04:17.137Z,1534
2022-10-10T05:09:35.863Z,1557
2022-10-10T05:14:54.371Z,1541
2022-10-10T05:20:15.666Z,1536
2022-10-10T05:25:34.408Z,1543
2022-10-10T05:30:53.137Z,1642
2022-10-10T05:36:11.366Z,1621
2022-10-10T05:41:29.602Z,1562
2022-10-10T05:46:48.093Z,1597
2022-10-10T05:52:07.844Z,1567
2022-10-10T05:57:26.098Z,1578
2022-10-10T06:02:44.875Z,1550
2022-10-10T06:08:09.132Z,1422
2022-10-10T06:13:30.505Z,1228
2022-10-10T06:18:48.993Z,904
2022-10-10T06:24:07.755Z,844
2022-10-10T06:29:26.492Z,1160
2022-10-10T06:34:29.083Z,1204
2022-10-10T06:39:47.296Z,1110
2022-10-10T06:45:05.767Z,748
2022-10-10T06:50:23.979Z,690
2022-10-10T06:55:42.509Z,876
2022-10-10T07:01:00.659Z,765
2022-10-10T07:06:19.144Z,718
2022-10-10T07:11:22.045Z,630
2022-10-10T07:16:40.287Z,686
2022-10-10T07:21:58.771Z,587
2022-10-10T07:27:16.686Z,536
2022-10-10T07:32:35.224Z,506
2022-10-10T07:37:53.696Z,502
2022-10-10T07:43:12.491Z,500
2022-10-10T07:48:30.360Z,493
2022-10-10T07:53:48.883Z,651
2022-10-10T07:59:07.666Z,668
2022-10-10T08:04:26.122Z,641
2022-10-10T08:09:44.908Z,674
2022-10-10T08:15:03.547Z,620
2022-10-10T08:20:22.307Z,593
2022-10-10T08:25:41.088Z,511
2022-10-10T08:31:00.948Z,488
2022-10-10T08:36:24.187Z,475
2022-10-10T08:41:42.642Z,447
2022-10-10T08:47:01.463Z,427
2022-10-10T08:52:04.055Z,417
2022-10-10T08:57:22.589Z,423
2022-10-10T09:02:53.502Z,419
2022-10-10T09:08:13.244Z,417
2022-10-10T09:13:15.521Z,415
2022-10-10T09:18:34.453Z,416
2022-10-10T09:23:37.091Z,409
2022-10-10T09:28:55.933Z,408
2022-10-10T09:34:14.537Z,404
2022-10-10T09:39:33.261Z,398
2022-10-10T09:44:35.833Z,400
2022-10-10T09:49:54.420Z,397
2022-10-10T09:55:12.954Z,394
2022-10-10T10:00:31.726Z,397
2022-10-10T10:05:50.198Z,395
2022-10-10T10:11:08.935Z,393
2022-10-10T10:16:27.704Z,393
2022-10-10T10:21:46.633Z,397
2022-10-10T10:27:04.794Z,393
2022-10-10T10:32:23.299Z,400
2022-10-10T10:37:41.803Z,401
2022-10-10T10:42:59.987Z,399
2022-10-10T10:48:18.174Z,399
2022-10-10T10:53:36.759Z,395
2022-10-10T10:59:16.958Z,398
2022-10-10T11:06:59.894Z,394
2022-10-10T11:12:38.691Z,396
2022-10-10T11:17:57.573Z,394
2022-10-10T11:23:16.319Z,395
2022-10-10T11:28:34.666Z,394
2022-10-10T11:33:54.315Z,393
2022-10-10T11:39:15.719Z,389
2022-10-10T11:44:34.373Z,389
2022-10-10T11:49:52.718Z,389
2022-10-10T11:55:11.193Z,393
2022-10-10T12:00:30.009Z,397
2022-10-10T12:05:47.945Z,395
2022-10-10T12:11:06.380Z,394
2022-10-10T12:16:29.624Z,402
2022-10-10T12:21:49.185Z,407
2022-10-10T12:27:07.948Z,412
2022-10-10T12:32:26.529Z,408
2022-10-10T12:37:44.747Z,408
2022-10-10T12:43:03.604Z,405
2022-10-10T12:48:22.135Z,405
2022-10-10T12:53:40.354Z,407
2022-10-10T12:58:58.860Z,405
2022-10-10T13:04:17.600Z,404
2022-10-10T13:09:36.081Z,408
2022-10-10T13:14:54.384Z,415
2022-10-10T13:20:12.644Z,417
2022-10-10T13:25:31.373Z,416
2022-10-10T13:30:50.124Z,424
2022-10-10T13:36:08.373Z,434
2022-10-10T13:41:26.543Z,432
2022-10-10T13:46:45.350Z,424
2022-10-10T13:52:03.876Z,426
2022-10-10T13:57:22.601Z,431
2022-10-10T14:02:40.844Z,432
2022-10-10T14:07:59.659Z,438
2022-10-10T14:13:18.424Z,445
2022-10-10T14:18:37.155Z,445
2022-10-10T14:23:40.049Z,445
2022-10-10T14:28:57.936Z,440
2022-10-10T14:34:16.407Z,441
2022-10-10T14:39:34.966Z,438
2022-10-10T14:44:53.408Z,437
2022-10-10T14:50:11.601Z,442
2022-10-10T14:55:30.115Z,445
2022-10-10T15:00:48.324Z,449
2022-10-10T15:06:07.102Z,447
2022-10-10T15:11:25.297Z,451
2022-10-10T15:16:43.467Z,449
2022-10-10T15:22:01.994Z,452
2022-10-10T15:27:20.473Z,467
2022-10-10T15:32:38.643Z,471
2022-10-10T15:37:57.149Z,470
2022-10-10T15:43:15.654Z,470
2022-10-10T15:48:33.832Z,462
2022-10-10T15:53:52.030Z,439
2022-10-10T15:59:10.543Z,420
2022-10-10T16:04:29.103Z,410
2022-10-10T16:09:48.125Z,410
2022-10-10T16:15:07.401Z,404
2022-10-10T16:20:26.212Z,404
2022-10-10T16:25:44.679Z,399
2022-10-10T16:31:03.842Z,399
2022-10-10T16:36:23.643Z,403
2022-10-10T16:41:47.834Z,409
2022-10-10T16:47:07.431Z,422
2022-10-10T16:52:25.895Z,444
2022-10-10T16:57:44.068Z,445
2022-10-10T17:03:02.871Z,453
2022-10-10T17:08:21.608Z,467
2022-10-10T17:13:40.068Z,483
2022-10-10T17:18:58.321Z,494
2022-10-10T17:24:16.485Z,507
2022-10-10T17:29:34.965Z,519
2022-10-10T17:34:53.190Z,528
2022-10-10T17:40:11.653Z,535
2022-10-10T17:45:30.106Z,533
2022-10-10T17:50:48.373Z,526
2022-10-10T17:56:07.161Z,537
2022-10-10T18:01:25.693Z,508
2022-10-10T18:06:44.781Z,487
2022-10-10T18:12:03.511Z,499
2022-10-10T18:17:21.676Z,521
2022-10-10T18:22:40.470Z,644
2022-10-10T18:27:59.173Z,629
2022-10-10T18:33:17.945Z,638
2022-10-10T18:38:20.534Z,643
2022-10-10T18:43:39.003Z,640
2022-10-10T18:48:57.269Z,655
2022-10-10T18:54:15.725Z,678
2022-10-10T18:59:33.949Z,702
2022-10-10T19:04:52.708Z,722
2022-10-10T19:10:10.910Z,736
2022-10-10T19:15:29.133Z,748
2022-10-10T19:20:47.533Z,759
2022-10-10T19:26:06.326Z,780
2022-10-10T19:31:24.732Z,845
2022-10-10T19:36:43.209Z,909
2022-10-10T19:42:02.007Z,938
2022-10-10T19:47:20.192Z,971
2022-10-10T19:52:38.954Z,993
2022-10-10T19:57:57.731Z,993
2022-10-10T20:03:15.904Z,1004
2022-10-10T20:08:34.668Z,1051
2022-10-10T20:13:53.223Z,1103
2022-10-10T20:19:11.106Z,1126
2022-10-10T20:24:29.322Z,1149
2022-10-10T20:29:48.191Z,1182
2022-10-10T20:35:06.664Z,1214
2022-10-10T20:40:25.147Z,1229
2022-10-10T20:45:43.660Z,1247
2022-10-10T20:51:01.827Z,1257
2022-10-10T20:56:20.598Z,1268
2022-10-10T21:01:38.888Z,1273
2022-10-10T21:06:57.362Z,1276
2022-10-10T21:12:16.158Z,1287
2022-10-10T21:17:34.906Z,1299
2022-10-10T21:22:53.318Z,1305
2022-10-10T21:28:11.496Z,1302
2022-10-10T21:33:30.010Z,1294
2022-10-10T21:38:48.188Z,1294
2022-10-10T21:44:06.961Z,1285
2022-10-10T21:49:25.739Z,1283
2022-10-10T21:54:44.209Z,1286
2022-10-10T22:00:02.696Z,1294
2022-10-10T22:05:21.219Z,1302
2022-10-10T22:10:39.968Z,1301
2022-10-10T22:15:58.470Z,1298
2022-10-10T22:21:16.705Z,1296
2022-10-10T22:26:35.154Z,1308
2022-10-10T22:31:53.629Z,1318
2022-10-10T22:37:12.146Z,1313
2022-10-10T22:42:30.621Z,1311
2022-10-10T22:47:49.102Z,1297
2022-10-10T22:53:07.038Z,1299
2022-10-10T22:58:25.238Z,1302
2022-10-10T23:03:43.460Z,1311
2022-10-10T23:09:01.690Z,1310
2022-10-10T23:14:19.896Z,1313
2022-10-10T23:19:38.369Z,1322
2022-10-10T23:24:56.901Z,1323
2022-10-10T23:30:15.109Z,1314
2022-10-10T23:35:33.870Z,1319
2022-10-10T23:40:52.360Z,1323
2022-10-10T23:46:10.827Z,1338
2022-10-10T23:51:29.821Z,1369
2022-10-10T23:56:48.607Z,1380
